Time;durP1;ratioP1;P1;durP2;ratioP2;P2;SDS_P1;SDS_P2;PMS_P1;PMS_P2;Temp;Humidity;BMP_temperature;BMP_pressure;BME280_temperature;BME280_humidity;BME280_pressure;Samples;Min_cycle;Max_cycle;Signal;HPM_P1;HPM_P2
2022/04/07 00:00:20;;;;;;;4.00;2.85;;;;;;;9.04;86.41;99179.28;5076082;28;20037;-70
2022/04/07 00:02:48;;;;;;;6.28;2.90;;;;;;;8.98;85.79;99172.69;5069476;28;20464;-70
2022/04/07 00:05:14;;;;;;;5.38;3.03;;;;;;;8.97;86.12;99168.34;5071207;28;20028;-70
2022/04/07 00:07:41;;;;;;;6.50;3.13;;;;;;;9.00;86.29;99153.97;5055493;28;20115;-70
2022/04/07 00:10:09;;;;;;;7.03;3.28;;;;;;;9.08;85.06;99156.84;5071047;28;20024;-70
2022/04/07 00:12:34;;;;;;;7.90;3.53;;;;;;;8.98;85.08;99147.97;5053059;28;20040;-70
2022/04/07 00:15:03;;;;;;;6.57;2.50;;;;;;;9.02;84.82;99142.28;5081402;28;20051;-70
2022/04/07 00:17:28;;;;;;;5.25;3.03;;;;;;;9.00;84.64;99138.94;5069502;28;20059;-70
2022/04/07 00:19:54;;;;;;;9.93;3.42;;;;;;;8.98;85.44;99145.34;5070960;28;20511;-70
2022/04/07 00:22:20;;;;;;;7.60;3.20;;;;;;;8.94;85.14;99128.84;5070819;28;20037;-70
2022/04/07 00:24:47;;;;;;;10.85;3.20;;;;;;;9.00;84.43;99132.75;5051698;28;20033;-70
2022/04/07 00:27:13;;;;;;;4.72;2.92;;;;;;;9.00;84.42;99136.28;5069425;28;20020;-70
2022/04/07 00:29:39;;;;;;;9.82;3.70;;;;;;;9.00;84.47;99123.03;5074363;28;20039;-70
2022/04/07 00:32:09;;;;;;;6.28;3.40;;;;;;;9.00;84.39;99117.72;5078536;28;20059;-70
2022/04/07 00:34:34;;;;;;;;;;;;;;;9.22;83.68;99107.94;5070184;28;20387;-70
2022/04/07 00:37:00;;;;;;;10.13;3.22;;;;;;;8.94;85.12;99088.22;5074252;28;19920;-70
2022/04/07 00:39:29;;;;;;;15.38;3.65;;;;;;;9.06;84.91;99103.09;5086860;28;20139;-70
2022/04/07 00:41:55;;;;;;;6.20;3.40;;;;;;;8.95;85.08;99088.09;5072159;28;20039;-69
2022/04/07 00:44:22;;;;;;;8.80;3.45;;;;;;;8.94;84.30;99070.50;5085081;28;20399;-69
2022/04/07 00:46:50;;;;;;;5.90;3.25;;;;;;;9.00;83.89;99088.56;5069051;28;20174;-70
2022/04/07 00:49:16;;;;;;;4.93;3.45;;;;;;;9.12;83.37;99084.00;5066599;28;20016;-70
2022/04/07 00:51:43;;;;;;;9.02;3.83;;;;;;;9.06;84.92;99085.38;5069588;28;20538;-69
2022/04/07 00:54:12;;;;;;;12.93;3.80;;;;;;;9.22;84.27;99070.78;5067254;28;20026;-70
2022/04/07 00:56:40;;;;;;;8.10;3.30;;;;;;;9.09;84.67;99081.63;5067220;28;20058;-69
2022/04/07 00:59:06;;;;;;;6.90;3.60;;;;;;;9.05;84.71;99051.00;5069927;28;20072;-69
2022/04/07 01:01:32;;;;;;;7.03;3.10;;;;;;;8.99;85.86;99057.69;5068800;28;20429;-69
2022/04/07 01:03:58;;;;;;;8.20;3.25;;;;;;;9.03;86.22;99076.81;5075886;28;20029;-69
2022/04/07 01:06:24;;;;;;;10.52;3.97;;;;;;;8.98;86.29;99055.19;5070060;28;20135;-70
2022/04/07 01:08:51;;;;;;;8.48;3.80;;;;;;;8.93;87.67;99067.97;5079688;28;20115;-69
2022/04/07 01:11:17;;;;;;;9.82;3.60;;;;;;;8.91;87.52;99056.66;5071081;28;20404;-69
2022/04/07 01:13:50;;;;;;;6.95;3.40;;;;;;;8.90;87.72;99050.50;5069969;28;20024;-69
2022/04/07 01:16:20;;;;;;;9.00;3.80;;;;;;;8.83;87.68;99039.59;5090016;28;20119;-69
2022/04/07 01:18:46;;;;;;;12.00;3.72;;;;;;;8.91;87.10;99054.00;5082457;28;20387;-69
2022/04/07 01:21:16;;;;;;;9.98;3.63;;;;;;;8.95;86.01;99035.06;5069688;28;20025;-70
2022/04/07 01:23:53;;;;;;;10.80;3.80;;;;;;;8.85;86.68;99013.81;5077692;28;20040;-69
2022/04/07 01:26:19;;;;;;;14.40;4.32;;;;;;;8.95;85.84;99023.63;5075630;28;20502;-69
2022/04/07 01:28:48;;;;;;;7.65;3.75;;;;;;;8.87;86.19;99022.44;5085100;28;20059;-70
2022/04/07 01:31:14;;;;;;;6.20;3.40;;;;;;;8.93;85.06;99012.31;5087555;28;20028;-70
2022/04/07 01:33:40;;;;;;;12.38;3.75;;;;;;;8.98;85.23;99010.09;5069633;28;20430;-70
2022/04/07 01:36:06;;;;;;;12.88;3.95;;;;;;;8.94;85.29;98998.06;5069422;28;20028;-69
2022/04/07 01:38:31;;;;;;;7.25;3.10;;;;;;;9.01;84.93;98989.47;5078646;28;20021;-70
2022/04/07 01:40:57;;;;;;;14.45;4.20;;;;;;;8.92;84.19;98987.59;5069907;28;20032;-70
2022/04/07 01:43:23;;;;;;;8.70;3.30;;;;;;;9.05;83.73;98982.06;5072301;28;20430;-70
2022/04/07 01:45:53;;;;;;;13.35;3.78;;;;;;;8.97;84.23;98971.28;5070047;28;20081;-69
2022/04/07 01:48:19;;;;;;;9.00;3.33;;;;;;;8.86;85.17;98973.06;5089283;28;20020;-69
2022/04/07 01:50:50;;;;;;;8.32;3.17;;;;;;;8.97;85.15;98958.03;5075861;28;20085;-69
2022/04/07 01:53:17;;;;;;;11.68;3.88;;;;;;;8.93;84.96;98954.81;5070264;28;20028;-70
2022/04/07 01:55:45;;;;;;;10.77;3.92;;;;;;;8.87;85.82;98950.88;5070807;28;20394;-69
2022/04/07 01:58:11;;;;;;;6.90;3.60;;;;;;;8.91;85.49;98953.25;5074492;28;20041;-69
2022/04/07 02:00:41;;;;;;;7.72;3.30;;;;;;;8.94;85.52;98951.22;5088669;28;20033;-69
2022/04/07 02:03:10;;;;;;;7.70;3.33;;;;;;;9.04;84.40;98940.63;5074216;28;20029;-70
2022/04/07 02:05:45;;;;;;;10.48;3.60;;;;;;;8.92;86.45;98952.31;5080921;28;20391;-69
2022/04/07 02:08:10;;;;;;;11.15;3.47;;;;;;;9.00;85.60;98963.94;5091082;28;20020;-69
2022/04/07 02:10:39;;;;;;;10.70;3.80;;;;;;;8.94;86.13;98943.25;5072187;28;20040;-69
2022/04/07 02:13:05;;;;;;;10.48;3.63;;;;;;;8.96;85.92;98959.84;5090929;28;20359;-70
2022/04/07 02:15:30;;;;;;;12.27;3.88;;;;;;;8.96;85.63;98941.28;5071856;28;20032;-69
2022/04/07 02:17:56;;;;;;;9.13;4.07;;;;;;;8.99;85.53;98927.75;5075739;28;20032;-69
2022/04/07 02:20:22;;;;;;;9.93;3.65;;;;;;;9.05;85.22;98929.03;5073495;28;20016;-69
2022/04/07 02:22:47;;;;;;;10.68;3.80;;;;;;;8.96;85.39;98938.63;5084124;28;20021;-69
2022/04/07 02:25:13;;;;;;;14.10;3.95;;;;;;;8.96;84.88;98908.63;5072072;28;20032;-69
2022/04/07 02:27:41;;;;;;;11.07;3.50;;;;;;;9.10;84.14;98922.34;5074483;28;20024;-70
2022/04/07 02:30:12;;;;;;;11.35;3.92;;;;;;;9.05;84.85;98918.44;5082803;28;20490;-69
2022/04/07 02:32:37;;;;;;;11.43;3.47;;;;;;;9.07;84.00;98929.75;5080656;28;20025;-69
2022/04/07 02:35:06;;;;;;;7.70;4.00;;;;;;;9.04;83.68;98920.25;5075126;28;20101;-69
2022/04/07 02:37:32;;;;;;;10.52;3.45;;;;;;;9.07;83.92;98912.03;5070761;28;20127;-69
2022/04/07 02:39:57;;;;;;;11.40;3.92;;;;;;;9.03;84.08;98886.75;5073692;28;20107;-70
2022/04/07 02:42:23;;;;;;;12.60;3.42;;;;;;;9.16;82.03;98905.06;5069481;28;20032;-69
2022/04/07 02:44:48;;;;;;;9.25;3.42;;;;;;;9.13;82.29;98900.03;5073036;28;20060;-69
2022/04/07 02:47:17;;;;;;;13.98;4.18;;;;;;;9.09;82.87;98890.69;5072721;28;20336;-69
2022/04/07 02:49:43;;;;;;;11.88;3.83;;;;;;;9.17;82.75;98904.09;5068804;28;20059;-70
2022/04/07 02:52:09;;;;;;;9.35;3.55;;;;;;;9.18;82.00;98889.03;5070580;28;20052;-69
2022/04/07 02:54:35;;;;;;;8.85;3.50;;;;;;;9.15;82.29;98863.63;5078693;28;20475;-69
2022/04/07 02:57:03;;;;;;;11.77;3.70;;;;;;;9.22;81.76;98877.16;5079761;28;20029;-69
2022/04/07 02:59:28;;;;;;;10.55;3.80;;;;;;;9.14;81.85;98858.44;5076974;28;20115;-69
2022/04/07 03:01:56;;;;;;;11.43;3.60;;;;;;;9.33;80.44;98864.63;5087198;28;20120;-69
2022/04/07 03:04:25;;;;;;;9.60;3.47;;;;;;;9.27;80.58;98843.94;5073320;28;20020;-71
2022/04/07 03:06:54;;;;;;;13.98;4.47;;;;;;;9.36;80.18;98854.72;5070187;28;20024;-70
2022/04/07 03:09:20;;;;;;;11.88;3.63;;;;;;;9.35;80.17;98839.75;5071190;28;20032;-69
2022/04/07 03:11:46;;;;;;;12.73;3.47;;;;;;;9.33;79.94;98837.25;5080012;28;20067;-69
2022/04/07 03:14:12;;;;;;;11.38;3.60;;;;;;;9.33;79.44;98824.00;5078430;28;20067;-70
2022/04/07 03:16:38;;;;;;;12.70;4.13;;;;;;;9.35;79.65;98819.38;5070588;28;20107;-69
2022/04/07 03:19:04;;;;;;;14.40;3.85;;;;;;;9.37;79.52;98812.13;5077011;28;20485;-69
2022/04/07 03:21:29;;;;;;;11.35;3.28;;;;;;;9.29;80.00;98810.19;5069787;28;20369;-69
2022/04/07 03:23:54;;;;;;;15.32;4.15;;;;;;;9.43;79.49;98816.03;5079994;28;20032;-69
2022/04/07 03:26:20;;;;;;;9.02;3.35;;;;;;;9.35;79.62;98787.53;5068095;28;20032;-69
2022/04/07 03:28:47;;;;;;;13.65;4.07;;;;;;;9.47;78.16;98798.84;5071568;28;20025;-69
2022/04/07 03:31:13;;;;;;;11.25;3.53;;;;;;;9.25;78.49;98760.19;5070681;28;20036;-69
2022/04/07 03:33:39;;;;;;;8.88;3.38;;;;;;;9.43;77.93;98795.63;5070522;28;20032;-69
2022/04/07 03:36:09;;;;;;;12.00;3.35;;;;;;;9.38;78.35;98797.84;5072195;28;20173;-69
2022/04/07 03:38:35;;;;;;;12.02;3.72;;;;;;;9.37;78.77;98785.59;5085788;28;20033;-70
2022/04/07 03:41:01;;;;;;;13.00;4.20;;;;;;;9.40;78.54;98795.91;5087403;28;20086;-69
2022/04/07 03:43:26;;;;;;;15.35;3.95;;;;;;;9.35;78.74;98781.38;5071429;28;20036;-69
2022/04/07 03:45:51;;;;;;;9.65;4.03;;;;;;;9.50;77.83;98764.91;5071705;28;20499;-69
2022/04/07 03:48:17;;;;;;;12.60;3.78;;;;;;;9.39;78.08;98756.28;5069394;28;20085;-69
2022/04/07 03:50:42;;;;;;;10.00;3.13;;;;;;;9.54;77.38;98776.91;5070058;28;20406;-70
2022/04/07 03:53:08;;;;;;;10.55;3.70;;;;;;;9.43;77.96;98766.44;5052943;28;20448;-69
2022/04/07 03:55:34;;;;;;;13.75;3.60;;;;;;;9.40;78.03;98748.16;5070060;28;20029;-70
2022/04/07 03:58:00;;;;;;;10.70;3.25;;;;;;;9.45;78.07;98750.41;5069282;28;20052;-69
2022/04/07 04:00:26;;;;;;;11.35;3.50;;;;;;;9.45;78.32;98724.69;5070203;28;20166;-69
2022/04/07 04:02:52;;;;;;;9.32;3.13;;;;;;;9.46;77.67;98742.28;5074448;28;20052;-70
2022/04/07 04:05:18;;;;;;;9.65;3.60;;;;;;;9.41;78.32;98706.53;5082042;28;20024;-69
2022/04/07 04:07:46;;;;;;;10.77;3.40;;;;;;;9.35;78.64;98696.50;5075261;28;20461;-70
2022/04/07 04:10:14;;;;;;;9.77;3.20;;;;;;;9.43;77.84;98721.34;5070106;28;20469;-69
2022/04/07 04:12:40;;;;;;;13.43;3.58;;;;;;;9.35;78.48;98691.19;5075342;28;20119;-70
2022/04/07 04:15:05;;;;;;;11.48;3.35;;;;;;;9.36;78.26;98680.47;5073426;28;20519;-69
2022/04/07 04:17:31;;;;;;;8.73;3.10;;;;;;;9.38;78.06;98694.41;5086132;28;20028;-69
2022/04/07 04:19:57;;;;;;;8.23;3.38;;;;;;;9.40;78.08;98663.25;5070214;28;20024;-69
2022/04/07 04:22:23;;;;;;;9.05;3.20;;;;;;;9.43;78.02;98632.97;5073876;28;20111;-69
2022/04/07 04:24:51;;;;;;;9.23;2.85;;;;;;;9.54;77.78;98648.72;5080858;28;20032;-69
2022/04/07 04:27:19;;;;;;;9.23;2.95;;;;;;;9.49;77.61;98629.72;5079289;28;20369;-70
2022/04/07 04:29:45;;;;;;;5.70;2.83;;;;;;;9.38;77.57;98617.47;5070426;28;20389;-69
2022/04/07 04:32:15;;;;;;;7.00;2.95;;;;;;;9.43;77.14;98603.78;5071100;28;20028;-69
2022/04/07 04:34:41;;;;;;;4.28;2.90;;;;;;;9.45;77.68;98613.25;5075930;28;20843;-69
2022/04/07 04:37:09;;;;;;;10.63;3.35;;;;;;;9.43;77.91;98622.34;5106330;28;20034;-69
2022/04/07 04:39:34;;;;;;;8.57;2.70;;;;;;;9.38;77.65;98606.03;5077295;28;20040;-69
2022/04/07 04:42:04;;;;;;;11.43;2.88;;;;;;;9.45;77.88;98576.13;5073623;28;20483;-69
2022/04/07 04:44:29;;;;;;;5.32;2.55;;;;;;;9.47;78.10;98608.66;5079272;28;20440;-69
2022/04/07 04:46:55;;;;;;;6.15;3.05;;;;;;;9.41;78.35;98590.66;5070493;28;20115;-70
2022/04/07 04:49:21;;;;;;;5.82;2.50;;;;;;;9.50;79.20;98604.84;5056069;28;20059;-69
2022/04/07 04:51:47;;;;;;;7.78;2.90;;;;;;;9.35;80.50;98587.75;5078649;28;20020;-69
2022/04/07 04:54:13;;;;;;;3.60;2.75;;;;;;;9.39;80.69;98584.66;5090787;28;20027;-69
2022/04/07 04:56:39;;;;;;;8.65;2.90;;;;;;;9.37;81.99;98580.47;5082178;28;20077;-69
2022/04/07 04:59:07;;;;;;;3.60;2.13;;;;;;;9.44;81.99;98579.78;5072728;28;20053;-69
2022/04/07 05:01:35;;;;;;;3.63;2.33;;;;;;;9.32;83.16;98563.19;5073319;28;20372;-69
2022/04/07 05:04:01;;;;;;;3.47;2.10;;;;;;;9.30;82.87;98551.88;5070656;28;20021;-69
2022/04/07 05:06:27;;;;;;;6.07;2.53;;;;;;;9.20;83.41;98558.19;5069861;28;20033;-69
2022/04/07 05:08:52;;;;;;;4.93;2.25;;;;;;;9.21;82.98;98539.50;5072719;28;20030;-71
2022/04/07 05:11:20;;;;;;;6.50;2.70;;;;;;;9.18;83.78;98531.84;5083552;28;20094;-69
2022/04/07 05:13:47;;;;;;;5.55;2.70;;;;;;;9.16;83.50;98539.09;5080251;28;20082;-69
2022/04/07 05:16:15;;;;;;;3.90;2.30;;;;;;;9.07;82.71;98487.75;5082597;28;20044;-69
2022/04/07 05:18:47;;;;;;;4.40;2.65;;;;;;;9.21;83.30;98536.00;5071767;28;20032;-69
2022/04/07 05:21:14;;;;;;;2.85;2.50;;;;;;;9.18;83.29;98513.28;5084609;28;20032;-69
2022/04/07 05:23:40;;;;;;;3.75;2.70;;;;;;;9.20;83.75;98510.47;5076371;28;20024;-70
2022/04/07 05:26:06;;;;;;;3.05;2.50;;;;;;;9.23;83.38;98512.81;5090557;28;20081;-69
2022/04/07 05:28:34;;;;;;;3.78;2.33;;;;;;;9.16;84.28;98495.84;5070977;28;20515;-69
2022/04/07 05:31:00;;;;;;;5.32;2.60;;;;;;;9.17;84.46;98471.78;5092506;28;20024;-69
2022/04/07 05:33:26;;;;;;;5.53;3.03;;;;;;;9.08;85.72;98478.81;5074547;28;20063;-69
2022/04/07 05:35:52;;;;;;;6.88;3.10;;;;;;;9.07;86.90;98481.63;5088114;28;20051;-69
2022/04/07 05:38:17;;;;;;;5.20;3.47;;;;;;;8.98;88.05;98470.06;5090508;28;20022;-69
2022/04/07 05:40:43;;;;;;;8.57;3.90;;;;;;;8.98;88.60;98478.03;5089485;28;20490;-69
2022/04/07 05:43:08;;;;;;;5.10;3.80;;;;;;;8.84;90.57;98470.53;5088350;28;20037;-69
2022/04/07 05:45:34;;;;;;;6.25;3.65;;;;;;;8.76;91.00;98449.22;5074287;28;20028;-69
2022/04/07 05:48:00;;;;;;;6.82;4.03;;;;;;;8.77;90.91;98449.09;5092746;28;20024;-69
2022/04/07 05:50:26;;;;;;;6.68;4.32;;;;;;;8.69;92.31;98446.31;5077646;28;20059;-68
2022/04/07 05:52:54;;;;;;;6.28;4.07;;;;;;;8.73;91.55;98421.19;5080115;28;20023;-69
2022/04/07 05:55:22;;;;;;;7.60;3.80;;;;;;;8.69;91.42;98416.34;5082173;28;20368;-68
2022/04/07 05:57:50;;;;;;;5.72;3.70;;;;;;;8.61;91.95;98403.81;5072200;28;20450;-69
2022/04/07 06:00:19;;;;;;;9.35;3.95;;;;;;;8.45;92.32;98380.59;5077767;28;20017;-69
2022/04/07 06:02:45;;;;;;;8.25;4.88;;;;;;;8.58;92.29;98394.31;5079087;28;20116;-68
2022/04/07 06:05:16;;;;;;;9.18;5.35;;;;;;;8.69;91.91;98387.19;5092882;28;20087;-69
2022/04/07 06:07:42;;;;;;;9.40;5.00;;;;;;;8.71;91.48;98396.66;5073795;28;20031;-69
2022/04/07 06:10:10;;;;;;;6.85;4.32;;;;;;;8.58;92.60;98380.25;5073672;28;20062;-69
2022/04/07 06:12:38;;;;;;;8.68;4.50;;;;;;;8.53;93.04;98388.66;5077855;28;20471;-69
2022/04/07 06:15:07;;;;;;;8.95;4.38;;;;;;;8.52;92.83;98365.75;5055245;28;20087;-69
2022/04/07 06:17:36;;;;;;;7.75;4.22;;;;;;;8.56;92.24;98364.50;5071493;28;20036;-69
2022/04/07 06:20:06;;;;;;;9.70;4.55;;;;;;;8.54;91.45;98347.09;5082614;28;20028;-69
2022/04/07 06:22:32;;;;;;;9.48;4.93;;;;;;;8.49;92.65;98376.66;5058912;28;20032;-69
2022/04/07 06:24:57;;;;;;;9.02;4.10;;;;;;;8.50;92.68;98366.88;5077807;28;20024;-69
2022/04/07 06:27:22;;;;;;;7.38;4.03;;;;;;;8.52;92.48;98347.22;5073503;28;20151;-70
2022/04/07 06:29:48;;;;;;;8.35;4.20;;;;;;;8.44;93.29;98340.97;5061992;28;20020;-69
2022/04/07 06:32:13;;;;;;;13.57;4.72;;;;;;;8.52;92.63;98330.50;5078237;28;20016;-70
2022/04/07 06:34:41;;;;;;;6.93;4.05;;;;;;;8.60;92.15;98331.44;5055701;28;20033;-69
2022/04/07 06:37:06;;;;;;;10.10;4.20;;;;;;;8.49;94.01;98320.19;5085700;28;20081;-69
2022/04/07 06:39:32;;;;;;;9.68;4.15;;;;;;;8.52;93.20;98310.13;5073358;28;20597;-69
2022/04/07 06:41:58;;;;;;;10.00;3.72;;;;;;;8.48;93.30;98316.72;5074042;28;20028;-69
2022/04/07 06:44:25;;;;;;;6.95;3.55;;;;;;;8.48;92.96;98289.41;5076514;28;20021;-69
2022/04/07 06:46:52;;;;;;;7.35;3.65;;;;;;;8.42;93.53;98264.34;5054254;28;20429;-68
2022/04/07 06:49:18;;;;;;;10.50;4.10;;;;;;;8.41;93.66;98275.88;5073381;28;20073;-68
2022/04/07 06:51:43;;;;;;;8.10;3.35;;;;;;;8.41;93.67;98271.44;5081945;28;20024;-68
2022/04/07 06:54:09;;;;;;;11.13;3.67;;;;;;;8.42;94.25;98251.09;5072797;28;20029;-68
2022/04/07 06:56:35;;;;;;;7.70;3.70;;;;;;;8.43;94.08;98251.91;5093058;28;20123;-68
2022/04/07 06:59:01;;;;;;;7.32;3.50;;;;;;;8.41;94.58;98249.41;5077712;28;20574;-68
2022/04/07 07:01:27;;;;;;;7.18;3.50;;;;;;;8.38;95.00;98228.47;5087780;28;20035;-68
2022/04/07 07:03:52;;;;;;;6.88;3.65;;;;;;;8.41;94.51;98222.91;5075691;28;20066;-68
2022/04/07 07:06:17;;;;;;;8.23;3.60;;;;;;;8.28;94.52;98188.81;5081603;28;20048;-68
2022/04/07 07:08:43;;;;;;;6.95;3.10;;;;;;;8.42;94.56;98203.41;5073576;28;20032;-68
2022/04/07 07:11:09;;;;;;;16.45;4.05;;;;;;;8.41;95.17;98191.13;5076144;28;20033;-68
2022/04/07 07:13:36;;;;;;;8.50;3.40;;;;;;;8.41;96.12;98180.53;5072143;28;20482;-67
2022/04/07 07:16:01;;;;;;;7.53;3.65;;;;;;;8.37;95.92;98182.63;5054486;28;20558;-67
2022/04/07 07:18:27;;;;;;;7.68;3.78;;;;;;;8.36;96.85;98166.91;5069542;28;20269;-68
2022/04/07 07:20:52;;;;;;;11.10;4.28;;;;;;;8.37;96.62;98166.75;5064935;28;20047;-68
2022/04/07 07:23:20;;;;;;;5.40;3.78;;;;;;;8.30;97.37;98155.09;5069779;28;20043;-68
2022/04/07 07:25:48;;;;;;;6.05;3.20;;;;;;;8.29;98.17;98141.97;5070306;28;20033;-67
2022/04/07 07:28:14;;;;;;;7.88;3.00;;;;;;;8.31;97.98;98129.44;5084788;28;20115;-68
2022/04/07 07:30:39;;;;;;;6.28;3.08;;;;;;;8.25;98.64;98107.03;5085008;28;20124;-67
2022/04/07 07:33:05;;;;;;;4.47;3.17;;;;;;;8.36;98.90;98119.25;5070341;28;20032;-67
2022/04/07 07:35:31;;;;;;;5.38;3.30;;;;;;;8.49;98.32;98103.81;5069130;28;20032;-67
2022/04/07 07:38:01;;;;;;;5.38;3.40;;;;;;;8.48;99.05;98109.28;5069370;28;20442;-67
2022/04/07 07:40:32;;;;;;;7.80;3.53;;;;;;;8.49;99.61;98105.66;5080199;28;20494;-67
2022/04/07 07:43:00;;;;;;;6.07;3.90;;;;;;;8.61;98.78;98099.94;5069650;28;20021;-67
2022/04/07 07:45:27;;;;;;;5.82;3.45;;;;;;;8.60;99.37;98100.94;5071144;28;20046;-68
2022/04/07 07:47:55;;;;;;;5.65;3.47;;;;;;;8.67;100.00;98180.66;5071241;28;20020;-67
2022/04/07 07:50:21;;;;;;;7.95;2.65;;;;;;;8.31;97.03;98283.84;5070978;28;20024;-67
2022/04/07 07:52:47;;;;;;;5.32;2.20;;;;;;;7.82;93.80;98299.03;5074106;28;20103;-68
2022/04/07 07:55:13;;;;;;;5.45;1.98;;;;;;;7.42;92.81;98294.78;5069661;28;20043;-68
2022/04/07 07:57:39;;;;;;;2.35;2.13;;;;;;;7.31;94.09;98284.34;5069270;28;20045;-68
2022/04/07 08:00:07;;;;;;;3.10;1.80;;;;;;;7.22;94.27;98291.31;5070442;28;20024;-68
2022/04/07 08:02:34;;;;;;;2.58;2.38;;;;;;;7.26;94.79;98282.13;5070843;28;20060;-68
2022/04/07 08:05:00;;;;;;;4.13;2.30;;;;;;;7.18;93.11;98270.59;5077461;28;20020;-67
2022/04/07 08:07:27;;;;;;;2.60;2.10;;;;;;;7.09;92.86;98288.13;5069496;28;20028;-69
2022/04/07 08:09:57;;;;;;;4.88;1.75;;;;;;;7.08;93.24;98275.84;5071280;28;20035;-68
2022/04/07 08:12:26;;;;;;;4.20;2.17;;;;;;;7.04;94.26;98275.31;5070307;28;20021;-68
2022/04/07 08:14:52;;;;;;;3.03;2.03;;;;;;;7.04;94.51;98269.19;5069206;28;20052;-68
2022/04/07 08:17:19;;;;;;;5.35;2.00;;;;;;;7.08;95.06;98249.41;5077310;28;20090;-67
2022/04/07 08:19:45;;;;;;;4.80;2.13;;;;;;;7.13;94.42;98254.31;5076850;28;20078;-67
2022/04/07 08:22:10;;;;;;;4.97;2.20;;;;;;;7.12;94.29;98255.25;5069792;28;20025;-67
2022/04/07 08:24:36;;;;;;;6.47;2.15;;;;;;;7.14;94.07;98251.50;5073829;28;20020;-67
2022/04/07 08:27:02;;;;;;;2.78;2.00;;;;;;;7.23;94.21;98269.16;5074452;28;20039;-67
2022/04/07 08:29:28;;;;;;;3.65;2.22;;;;;;;7.30;94.47;98250.97;5067466;28;20055;-66
2022/04/07 08:31:53;;;;;;;2.88;2.10;;;;;;;7.37;94.20;98240.66;5070165;28;20036;-67
2022/04/07 08:34:19;;;;;;;2.50;2.05;;;;;;;7.43;94.56;98258.59;5053256;28;20047;-67
2022/04/07 08:36:51;;;;;;;5.20;2.25;;;;;;;7.53;94.66;98262.09;5082097;28;20111;-67
2022/04/07 08:39:16;;;;;;;3.28;2.50;;;;;;;7.61;94.14;98256.06;5068260;28;20021;-67
2022/04/07 08:41:45;;;;;;;5.75;2.78;;;;;;;7.71;95.11;98249.78;5072887;28;20040;-67
2022/04/07 08:44:11;;;;;;;3.58;2.42;;;;;;;7.71;95.04;98252.44;5068526;28;20500;-68
2022/04/07 08:46:39;;;;;;;5.72;2.33;;;;;;;7.67;95.18;98234.31;5069583;28;20103;-67
2022/04/07 08:49:08;;;;;;;4.95;2.50;;;;;;;7.83;95.00;98246.97;5067350;28;20336;-68
2022/04/07 08:51:34;;;;;;;3.72;2.85;;;;;;;7.94;94.01;98233.53;5068237;28;20031;-68
2022/04/07 08:54:00;;;;;;;4.25;2.53;;;;;;;8.01;94.28;98239.13;5069588;28;20032;-68
2022/04/07 08:56:26;;;;;;;4.75;2.60;;;;;;;8.02;95.92;98252.19;5078750;28;20088;-68
2022/04/07 08:58:53;;;;;;;6.95;2.90;;;;;;;8.08;96.60;98242.84;5068488;28;20087;-68
2022/04/07 09:01:19;;;;;;;6.25;2.75;;;;;;;8.37;96.81;98250.66;5070737;28;20467;-68
2022/04/07 09:03:44;;;;;;;5.47;3.10;;;;;;;8.60;96.93;98240.53;5069930;28;20111;-68
2022/04/07 09:06:10;;;;;;;5.97;3.00;;;;;;;8.91;97.23;98243.66;5067191;28;20086;-68
2022/04/07 09:08:38;;;;;;;6.80;2.80;;;;;;;9.09;95.86;98239.22;5051308;28;20028;-68
2022/04/07 09:11:06;;;;;;;3.88;2.60;;;;;;;9.14;94.55;98244.03;5069292;28;20394;-67
2022/04/07 09:13:42;;;;;;;3.53;2.58;;;;;;;9.24;93.62;98247.47;5068836;28;20031;-68
2022/04/07 09:16:13;;;;;;;5.95;2.95;;;;;;;9.25;92.67;98241.16;5066747;28;20077;-68
2022/04/07 09:18:50;;;;;;;6.30;2.90;;;;;;;9.32;92.20;98252.00;5067626;28;20037;-68
2022/04/07 09:21:25;;;;;;;3.97;3.15;;;;;;;9.30;93.31;98256.63;5078661;28;20044;-68
2022/04/07 09:23:54;;;;;;;6.05;3.80;;;;;;;9.53;92.85;98236.59;5069797;28;20874;-68
2022/04/07 09:26:22;;;;;;;6.60;4.80;;;;;;;9.74;93.50;98246.03;5070154;28;20043;-67
2022/04/07 09:28:47;;;;;;;4.95;4.55;;;;;;;10.06;91.35;98245.41;5074675;28;20052;-68
2022/04/07 09:31:17;;;;;;;6.43;5.22;;;;;;;10.33;91.88;98252.38;5067347;28;20064;-69
2022/04/07 09:33:52;;;;;;;6.43;5.82;;;;;;;10.64;91.05;98255.28;5070541;28;20033;-68
2022/04/07 09:36:21;;;;;;;6.13;5.47;;;;;;;10.93;88.87;98267.34;5072314;28;20035;-68
2022/04/07 09:38:54;;;;;;;6.55;4.90;;;;;;;11.05;86.40;98289.97;5070861;28;20154;-68
2022/04/07 09:41:21;;;;;;;6.60;3.80;;;;;;;10.95;83.21;98267.19;5066823;28;20073;-68
2022/04/07 09:43:58;;;;;;;6.80;3.80;;;;;;;10.91;83.55;98266.66;5076073;28;20110;-69
2022/04/07 09:46:38;;;;;;;7.03;2.78;;;;;;;10.84;80.72;98278.94;5068497;28;20059;-68
2022/04/07 09:49:11;;;;;;;6.28;2.92;;;;;;;10.85;78.34;98272.63;5082750;28;20031;-69
2022/04/07 09:51:40;;;;;;;5.22;2.85;;;;;;;10.80;77.83;98275.78;5078924;28;20046;-69
2022/04/07 09:54:11;;;;;;;7.47;3.22;;;;;;;10.76;79.22;98270.94;5069043;28;20078;-69
2022/04/07 09:56:37;;;;;;;4.93;2.75;;;;;;;10.97;76.15;98265.19;5066276;28;20107;-67
2022/04/07 09:59:07;;;;;;;4.10;3.33;;;;;;;11.08;75.87;98270.19;5069346;28;20511;-70
2022/04/07 10:01:34;;;;;;;6.65;3.33;;;;;;;11.22;74.55;98266.88;5078487;28;20035;-70
2022/04/07 10:04:01;;;;;;;4.80;2.92;;;;;;;11.29;76.34;98261.72;5090814;28;20032;-68
2022/04/07 10:06:27;;;;;;;5.68;3.25;;;;;;;11.22;76.54;98271.38;5088614;28;20080;-69
2022/04/07 10:08:52;;;;;;;5.68;3.60;;;;;;;11.05;77.29;98257.22;5083456;28;20016;-69
2022/04/07 10:11:18;;;;;;;6.28;3.40;;;;;;;10.99;75.74;98279.16;5066511;28;20028;-70
2022/04/07 10:13:50;;;;;;;4.95;2.65;;;;;;;10.68;75.31;98274.44;5069206;28;20033;-69
2022/04/07 10:16:20;;;;;;;4.50;2.90;;;;;;;10.57;73.62;98309.25;5070625;28;20032;-68
2022/04/07 10:18:58;;;;;;;8.15;3.00;;;;;;;10.53;69.46;98294.59;5080210;28;20035;-69
2022/04/07 10:21:43;;;;;;;7.78;2.97;;;;;;;10.63;70.67;98290.84;5092695;28;20024;-68
2022/04/07 10:24:26;;;;;;;7.50;2.60;;;;;;;10.79;67.08;98298.03;5083217;28;20092;-69
2022/04/07 10:26:54;;;;;;;6.75;2.47;;;;;;;11.14;63.97;98283.66;5087817;28;20027;-69
2022/04/07 10:29:23;;;;;;;5.40;2.33;;;;;;;11.57;65.20;98286.22;5076463;28;20017;-69
2022/04/07 10:32:10;;;;;;;5.05;2.42;;;;;;;11.97;65.87;98273.88;5072950;28;20626;-68
2022/04/07 10:34:42;;;;;;;8.38;2.88;;;;;;;12.01;62.03;98299.19;5073087;28;20103;-69
2022/04/07 10:37:09;;;;;;;6.93;2.80;;;;;;;12.04;61.26;98298.84;5089773;28;20479;-69
2022/04/07 10:39:39;;;;;;;7.93;2.83;;;;;;;12.28;61.63;98311.28;5078671;28;20039;-69
2022/04/07 10:42:05;;;;;;;5.63;2.20;;;;;;;12.60;62.56;98305.03;5091933;28;20028;-69
2022/04/07 10:44:33;;;;;;;11.20;2.28;;;;;;;12.90;62.17;98314.06;5092046;28;20035;-69
2022/04/07 10:47:06;;;;;;;8.90;2.75;;;;;;;13.03;63.30;98323.34;5092175;28;20020;-69
2022/04/07 10:49:32;;;;;;;7.93;2.63;;;;;;;12.78;60.95;98335.97;5075036;28;20029;-69
2022/04/07 10:52:00;;;;;;;8.00;2.75;;;;;;;12.73;60.98;98325.81;5072077;28;20035;-69
2022/04/07 10:54:29;;;;;;;11.63;3.03;;;;;;;12.28;59.13;98341.44;5071758;28;20479;-69
2022/04/07 10:56:56;;;;;;;7.13;2.90;;;;;;;12.17;59.68;98341.78;5080700;28;20040;-69
2022/04/07 10:59:28;;;;;;;10.80;3.00;;;;;;;11.86;58.69;98346.16;5072091;28;20141;-69
2022/04/07 11:02:10;;;;;;;10.95;3.10;;;;;;;11.93;59.51;98347.16;5072292;28;20483;-69
2022/04/07 11:05:10;;;;;;;11.82;2.53;;;;;;;12.36;60.73;98353.94;5074196;28;20086;-69
2022/04/07 11:08:08;;;;;;;12.57;3.28;;;;;;;12.67;56.56;98362.00;5072169;28;20486;-69
2022/04/07 11:10:48;;;;;;;6.90;3.00;;;;;;;12.73;56.50;98339.16;5077778;28;20044;-69
2022/04/07 11:13:13;;;;;;;10.10;2.97;;;;;;;12.66;54.65;98388.84;5071062;28;20034;-69
2022/04/07 11:15:51;;;;;;;10.00;3.20;;;;;;;12.48;55.80;98392.56;5069991;28;20059;-69
2022/04/07 11:18:32;;;;;;;10.65;3.13;;;;;;;12.44;54.69;98388.56;5074717;28;20028;-69
2022/04/07 11:21:01;;;;;;;12.65;3.40;;;;;;;12.41;52.28;98380.91;5068236;28;20025;-69
2022/04/07 11:23:49;;;;;;;9.73;3.33;;;;;;;12.64;55.56;98382.84;5074920;28;20033;-69
2022/04/07 11:26:24;;;;;;;10.10;3.70;;;;;;;12.96;55.15;98400.59;5077231;28;20459;-69
2022/04/07 11:29:19;;;;;;;12.00;3.60;;;;;;;12.93;55.25;98401.75;5070911;28;20024;-69
2022/04/07 11:31:48;;;;;;;10.00;3.30;;;;;;;13.54;53.91;98420.72;5071673;28;20079;-69
2022/04/07 11:34:35;;;;;;;;;;;;;;;14.08;51.00;98457.25;5071398;28;20024;-69
2022/04/07 11:37:08;;;;;;;8.70;2.58;;;;;;;13.25;50.90;98432.03;5071076;28;19955;-69
2022/04/07 11:39:34;;;;;;;14.82;3.10;;;;;;;12.87;51.20;98426.47;5082606;28;20066;-70
2022/04/07 11:42:05;;;;;;;10.20;3.10;;;;;;;12.66;51.95;98428.84;5072949;28;20029;-69